Tuesday, January 27, 2015, 5:56 PM EST

KFDK, Frederick, Frederick Municipal Airport

Location: Frederick, MD, United States Lat: 39.417
Local Time: 5:56 PM EST (22:56 GMT) Lon: -77.374
Time Zone: US/Eastern Elev: 301 ft

Show me the last for .
Show Decoded

2015-01-27 16:45 METAR KFDK 272145Z 31006G15KT 10SM BKN027 OVC080 01/M06 A2988 =
2015-01-27 15:45 METAR KFDK 272045Z 32013KT 10SM BKN027 BKN044 01/M06 A2987 =
2015-01-27 14:51 METAR KFDK 271951Z 32012KT 10SM BKN027 BKN032 01/M06 A2984 =
2015-01-27 13:50 METAR KFDK 271850Z 34009KT 10SM BKN029 BKN041 02/M07 A2984 =
2015-01-27 12:55 METAR KFDK 271755Z 34007KT 10SM SCT027 BKN033 02/M07 A2984 =
2015-01-27 11:49 METAR KFDK 271649Z 31007KT 10SM SCT049 BKN060 OVC085 01/M06 A2985 =
2015-01-27 10:49 METAR KFDK 271549Z 32005KT 10SM SCT032 SCT050 BKN100 01/M07 A2986 =
2015-01-27 09:50 METAR KFDK 271450Z 07008KT 10SM BKN047 OVC100 00/M07 A2985 =
2015-01-27 08:50 METAR KFDK 271350Z 00000KT 10SM BKN047 M02/M06 A2985 =
2015-01-27 07:50 METAR KFDK 271250Z 07006KT 5SM HZ BKN038 OVC049 M01/M06 A2984 =
2015-01-27 06:50 METAR KFDK 271150Z 07005KT 10SM SCT040 OVC050 M01/M07 A2982 =
2015-01-27 05:30 METAR KFDK 271030Z AUTO 06007KT 10SM SCT035 OVC045 M01/M06 A2980 RMK AO2 LTG
                 DSNT SE =
2015-01-27 05:20 METAR KFDK 271020Z AUTO 06005KT 3SM -SN SCT037 OVC045 M01/M05 A2980 RMK AO2 LTG
                 DSNT E AND SE =
2015-01-27 05:00 METAR KFDK 271000Z AUTO 06006KT 10SM SCT031 OVC037 00/M06 A2980 RMK AO2 LTG DSNT
                 SE =
2015-01-27 04:40 METAR KFDK 270940Z AUTO 06007KT 10SM OVC032 M01/M05 A2979 RMK AO2 LTG DSNT E AND
                 SE =
2015-01-27 04:20 METAR KFDK 270920Z AUTO 06003KT 10SM OVC032 M01/M04 A2979 RMK AO2 LTG DSNT SE
                 AND SW =
2015-01-27 04:00 METAR KFDK 270900Z AUTO 00000KT 10SM BKN027 OVC032 M01/M05 A2979 RMK AO2 =
2015-01-27 03:40 METAR KFDK 270840Z AUTO 00000KT 10SM OVC032 M01/M05 A2979 RMK AO2 =
2015-01-27 03:20 METAR KFDK 270820Z AUTO 00000KT 10SM OVC032 M01/M05 A2979 RMK AO2 =
2015-01-27 03:00 METAR KFDK 270800Z AUTO 00000KT 10SM OVC034 M01/M05 A2979 RMK AO2 =
2015-01-27 02:40 METAR KFDK 270740Z AUTO 06003KT 10SM OVC038 M01/M05 A2979 RMK AO2 LTG DSNT SE =
2015-01-27 02:20 METAR KFDK 270720Z AUTO 00000KT 10SM OVC038 M01/M04 A2980 RMK AO2 LTG DSNT E =
2015-01-27 02:00 METAR KFDK 270700Z AUTO 06004KT 10SM OVC035 M01/M04 A2980 RMK AO2 =
2015-01-27 01:40 METAR KFDK 270640Z AUTO 06006KT 10SM OVC033 M01/M04 A2980 RMK AO2 P0001 =
2015-01-27 01:20 METAR KFDK 270620Z AUTO 06003KT 10SM BKN032 OVC040 M01/M05 A2980 RMK AO2 P0001 =
2015-01-27 00:40 METAR KFDK 270540Z AUTO 06003KT 10SM SCT025 OVC030 M01/M04 A2980 RMK AO2 =
2015-01-27 00:20 METAR KFDK 270520Z AUTO 06003KT 4SM -SN SCT020 BKN024 OVC032 M02/M04 A2981 RMK
                 AO2 LTG DSNT SE =
2015-01-27 00:00 METAR KFDK 270500Z AUTO 06003KT 1 1/2SM -SN OVC016 M02/M04 A2981 RMK AO2 =
2015-01-26 23:40 METAR KFDK 270440Z AUTO 06004KT 2 1/2SM -SN SCT013 SCT020 OVC026 M02/M05 A2981
                 RMK AO2 LTG DSNT SE =
2015-01-26 23:20 METAR KFDK 270420Z AUTO 06005KT 3SM -SN OVC026 M02/M05 A2981 RMK AO2 =
2015-01-26 23:00 METAR KFDK 270400Z AUTO 06006KT 2SM -SN OVC024 M02/M05 A2981 RMK AO2 =
2015-01-26 22:35 METAR KFDK 270335Z AUTO 06006KT 3SM -SN OVC034 M02/M05 A2982 RMK AO2 =
2015-01-26 22:15 METAR KFDK 270315Z AUTO 06004KT 2 1/2SM -SN OVC032 M02/M05 A2982 RMK AO2 LTG
                 DSNT E =
2015-01-26 21:55 METAR KFDK 270255Z AUTO 06006KT 2 1/2SM -SN SCT023 OVC030 M02/M05 A2982 RMK AO2
                 =
2015-01-26 21:35 METAR KFDK 270235Z AUTO 06006KT 1 3/4SM -SN BKN023 OVC028 M02/M05 A2983 RMK AO2
                 =
2015-01-26 21:15 METAR KFDK 270215Z AUTO 06006KT 2 1/2SM -SN OVC023 M02/M05 A2982 RMK AO2 LTG
                 DSNT E =
2015-01-26 20:55 METAR KFDK 270155Z AUTO 06007KT 2SM -SN SCT019 OVC026 M02/M06 A2982 RMK AO2 LTG
                 DSNT E AND SE =
2015-01-26 20:35 METAR KFDK 270135Z AUTO 06008KT 2SM -SN SCT011 BKN017 OVC026 M02/M06 A2982 RMK
                 AO2 =
2015-01-26 20:15 METAR KFDK 270115Z AUTO 06008KT 2SM -SN SCT010 OVC017 M02/M05 A2982 RMK AO2 LTG
                 DSNT E =
2015-01-26 19:55 METAR KFDK 270055Z AUTO 06007KT 1 1/4SM -SN SCT008 BKN015 OVC025 M02/M05 A2981
                 RMK AO2 LTG DSNT SE =
2015-01-26 19:45 METAR KFDK 270045Z 07009KT 1 1/2SM -SN SCT010 BKN015 OVC025 M03/M06 A2981 =
2015-01-26 19:35 METAR KFDK 270035Z AUTO 06008KT 2SM -SN SCT008 SCT013 OVC025 M02/M05 A2981 RMK
                 AO2 =
2015-01-26 18:45 METAR KFDK 262345Z 07010KT 3SM -SN SCT010 OVC025 M03/M06 A2981 =

Support USWX by starting your Amazon purchase here.